sensor_id;sensor_type;location;lat;lon;timestamp;temperature;humidity
66119;DHT22;52912;48.564;9.302;2022-07-29T00:00:36;19.65;83.10
66119;DHT22;52912;48.564;9.302;2022-07-29T00:03:03;19.67;83.44
66119;DHT22;52912;48.564;9.302;2022-07-29T00:05:29;19.72;82.30
66119;DHT22;52912;48.564;9.302;2022-07-29T00:07:56;19.70;81.75
66119;DHT22;52912;48.564;9.302;2022-07-29T00:10:21;19.81;81.93
66119;DHT22;52912;48.564;9.302;2022-07-29T00:12:47;19.71;81.24
66119;DHT22;52912;48.564;9.302;2022-07-29T00:15:13;19.70;81.42
66119;DHT22;52912;48.564;9.302;2022-07-29T00:17:38;19.64;81.44
66119;DHT22;52912;48.564;9.302;2022-07-29T00:20:05;19.77;80.84
66119;DHT22;52912;48.564;9.302;2022-07-29T00:22:31;19.72;80.46
66119;DHT22;52912;48.564;9.302;2022-07-29T00:24:58;19.65;80.33
66119;DHT22;52912;48.564;9.302;2022-07-29T00:27:23;19.63;80.57
66119;DHT22;52912;48.564;9.302;2022-07-29T00:29:49;19.72;78.92
66119;DHT22;52912;48.564;9.302;2022-07-29T00:32:14;19.78;80.48
66119;DHT22;52912;48.564;9.302;2022-07-29T00:34:40;19.68;79.85
66119;DHT22;52912;48.564;9.302;2022-07-29T00:37:05;19.74;79.11
66119;DHT22;52912;48.564;9.302;2022-07-29T00:39:31;19.72;79.48
66119;DHT22;52912;48.564;9.302;2022-07-29T00:41:58;19.82;78.21
66119;DHT22;52912;48.564;9.302;2022-07-29T00:44:23;19.89;76.27
66119;DHT22;52912;48.564;9.302;2022-07-29T00:46:49;19.93;77.39
66119;DHT22;52912;48.564;9.302;2022-07-29T00:49:14;19.96;77.21
66119;DHT22;52912;48.564;9.302;2022-07-29T00:51:40;19.91;77.24
66119;DHT22;52912;48.564;9.302;2022-07-29T00:54:07;19.75;77.76
66119;DHT22;52912;48.564;9.302;2022-07-29T00:56:33;19.89;77.61
66119;DHT22;52912;48.564;9.302;2022-07-29T00:59:00;19.77;77.88
66119;DHT22;52912;48.564;9.302;2022-07-29T01:01:25;19.70;78.56
66119;DHT22;52912;48.564;9.302;2022-07-29T01:03:51;19.70;78.73
66119;DHT22;52912;48.564;9.302;2022-07-29T01:06:18;19.58;78.80
66119;DHT22;52912;48.564;9.302;2022-07-29T01:08:44;19.71;78.44
66119;DHT22;52912;48.564;9.302;2022-07-29T01:11:10;19.68;78.08
66119;DHT22;52912;48.564;9.302;2022-07-29T01:13:36;19.70;78.41
66119;DHT22;52912;48.564;9.302;2022-07-29T01:16:08;19.58;78.91
66119;DHT22;52912;48.564;9.302;2022-07-29T01:18:42;19.60;78.58
66119;DHT22;52912;48.564;9.302;2022-07-29T01:21:40;19.61;78.78
66119;DHT22;52912;48.564;9.302;2022-07-29T01:27:14;19.41;80.34
66119;DHT22;52912;48.564;9.302;2022-07-29T01:29:54;19.43;81.39
66119;DHT22;52912;48.564;9.302;2022-07-29T01:32:24;19.43;80.41
66119;DHT22;52912;48.564;9.302;2022-07-29T01:34:54;19.31;80.77
66119;DHT22;52912;48.564;9.302;2022-07-29T01:37:24;19.23;81.19
66119;DHT22;52912;48.564;9.302;2022-07-29T01:39:52;19.19;81.51
66119;DHT22;52912;48.564;9.302;2022-07-29T01:42:27;19.18;81.65
66119;DHT22;52912;48.564;9.302;2022-07-29T01:44:59;19.16;82.20
66119;DHT22;52912;48.564;9.302;2022-07-29T01:47:32;19.05;83.15
66119;DHT22;52912;48.564;9.302;2022-07-29T01:49:59;18.92;84.03
66119;DHT22;52912;48.564;9.302;2022-07-29T01:52:31;18.87;84.41
66119;DHT22;52912;48.564;9.302;2022-07-29T01:54:59;18.87;84.74
66119;DHT22;52912;48.564;9.302;2022-07-29T01:57:29;18.81;84.31
66119;DHT22;52912;48.564;9.302;2022-07-29T01:59:59;18.88;84.58
66119;DHT22;52912;48.564;9.302;2022-07-29T02:02:28;18.79;85.22
66119;DHT22;52912;48.564;9.302;2022-07-29T02:04:54;18.75;85.70
66119;DHT22;52912;48.564;9.302;2022-07-29T02:07:23;18.64;85.92
66119;DHT22;52912;48.564;9.302;2022-07-29T02:09:51;18.58;85.72
66119;DHT22;52912;48.564;9.302;2022-07-29T02:12:19;18.32;86.90
66119;DHT22;52912;48.564;9.302;2022-07-29T02:14:47;18.46;86.55
66119;DHT22;52912;48.564;9.302;2022-07-29T02:17:21;18.57;85.93
66119;DHT22;52912;48.564;9.302;2022-07-29T02:19:47;18.58;86.41
66119;DHT22;52912;48.564;9.302;2022-07-29T02:22:14;18.46;87.67
66119;DHT22;52912;48.564;9.302;2022-07-29T02:24:41;18.41;87.28
66119;DHT22;52912;48.564;9.302;2022-07-29T02:27:09;18.20;88.02
66119;DHT22;52912;48.564;9.302;2022-07-29T02:29:36;18.23;86.50
66119;DHT22;52912;48.564;9.302;2022-07-29T02:32:03;18.30;86.17
66119;DHT22;52912;48.564;9.302;2022-07-29T02:34:30;18.47;86.48
66119;DHT22;52912;48.564;9.302;2022-07-29T02:36:58;18.32;86.02
66119;DHT22;52912;48.564;9.302;2022-07-29T02:39:25;18.40;85.84
66119;DHT22;52912;48.564;9.302;2022-07-29T02:41:57;18.54;85.54
66119;DHT22;52912;48.564;9.302;2022-07-29T02:44:25;18.56;85.59
66119;DHT22;52912;48.564;9.302;2022-07-29T02:46:54;18.44;85.89
66119;DHT22;52912;48.564;9.302;2022-07-29T02:49:34;18.37;86.39
66119;DHT22;52912;48.564;9.302;2022-07-29T02:52:02;18.26;86.69
66119;DHT22;52912;48.564;9.302;2022-07-29T02:54:31;18.30;87.21
66119;DHT22;52912;48.564;9.302;2022-07-29T02:57:00;18.26;86.37
66119;DHT22;52912;48.564;9.302;2022-07-29T02:59:30;18.33;86.60
66119;DHT22;52912;48.564;9.302;2022-07-29T03:02:02;18.29;86.33
66119;DHT22;52912;48.564;9.302;2022-07-29T03:04:28;18.22;86.16
66119;DHT22;52912;48.564;9.302;2022-07-29T03:06:59;18.08;86.81
66119;DHT22;52912;48.564;9.302;2022-07-29T03:09:26;18.16;86.76
66119;DHT22;52912;48.564;9.302;2022-07-29T03:11:52;18.08;86.10
66119;DHT22;52912;48.564;9.302;2022-07-29T03:14:19;18.09;86.55
66119;DHT22;52912;48.564;9.302;2022-07-29T03:16:45;18.03;86.39
66119;DHT22;52912;48.564;9.302;2022-07-29T03:19:11;18.09;86.25
66119;DHT22;52912;48.564;9.302;2022-07-29T03:21:37;18.19;85.94
66119;DHT22;52912;48.564;9.302;2022-07-29T03:24:04;18.09;86.03
66119;DHT22;52912;48.564;9.302;2022-07-29T03:26:30;18.17;85.89
66119;DHT22;52912;48.564;9.302;2022-07-29T03:28:55;18.25;85.24
66119;DHT22;52912;48.564;9.302;2022-07-29T03:31:21;18.19;85.74
66119;DHT22;52912;48.564;9.302;2022-07-29T03:33:46;18.16;85.64
66119;DHT22;52912;48.564;9.302;2022-07-29T03:36:12;18.12;85.64
66119;DHT22;52912;48.564;9.302;2022-07-29T03:38:39;18.13;85.61
66119;DHT22;52912;48.564;9.302;2022-07-29T03:41:10;18.17;85.93
66119;DHT22;52912;48.564;9.302;2022-07-29T03:43:38;18.10;86.25
66119;DHT22;52912;48.564;9.302;2022-07-29T03:46:06;17.95;86.83
66119;DHT22;52912;48.564;9.302;2022-07-29T03:48:34;18.03;86.73
66119;DHT22;52912;48.564;9.302;2022-07-29T03:51:01;17.95;87.04
66119;DHT22;52912;48.564;9.302;2022-07-29T03:53:27;18.05;86.66
66119;DHT22;52912;48.564;9.302;2022-07-29T03:55:54;17.96;86.80
66119;DHT22;52912;48.564;9.302;2022-07-29T03:58:26;17.79;87.27
66119;DHT22;52912;48.564;9.302;2022-07-29T04:00:52;17.84;87.73
66119;DHT22;52912;48.564;9.302;2022-07-29T04:03:19;17.91;87.54
66119;DHT22;52912;48.564;9.302;2022-07-29T04:05:45;17.95;87.12
66119;DHT22;52912;48.564;9.302;2022-07-29T04:08:10;17.85;88.35
66119;DHT22;52912;48.564;9.302;2022-07-29T04:10:37;17.79;88.15
66119;DHT22;52912;48.564;9.302;2022-07-29T04:13:03;17.88;88.02
66119;DHT22;52912;48.564;9.302;2022-07-29T04:15:30;17.85;88.08
66119;DHT22;52912;48.564;9.302;2022-07-29T04:17:55;17.96;87.58
66119;DHT22;52912;48.564;9.302;2022-07-29T04:20:21;17.95;87.45
66119;DHT22;52912;48.564;9.302;2022-07-29T04:22:46;17.96;87.50
66119;DHT22;52912;48.564;9.302;2022-07-29T04:25:12;17.98;87.29
66119;DHT22;52912;48.564;9.302;2022-07-29T04:27:37;17.88;87.32
66119;DHT22;52912;48.564;9.302;2022-07-29T04:30:03;17.92;87.40
66119;DHT22;52912;48.564;9.302;2022-07-29T04:32:31;17.96;86.99
66119;DHT22;52912;48.564;9.302;2022-07-29T04:34:56;17.92;87.39
66119;DHT22;52912;48.564;9.302;2022-07-29T04:37:22;17.91;87.23
66119;DHT22;52912;48.564;9.302;2022-07-29T04:39:47;17.82;88.25
66119;DHT22;52912;48.564;9.302;2022-07-29T04:42:13;17.89;87.83
66119;DHT22;52912;48.564;9.302;2022-07-29T04:44:38;17.86;87.63
66119;DHT22;52912;48.564;9.302;2022-07-29T04:47:07;17.82;87.97
66119;DHT22;52912;48.564;9.302;2022-07-29T04:49:34;17.92;88.09
66119;DHT22;52912;48.564;9.302;2022-07-29T04:51:59;18.02;87.20
66119;DHT22;52912;48.564;9.302;2022-07-29T04:54:25;17.95;87.92
66119;DHT22;52912;48.564;9.302;2022-07-29T04:56:50;17.96;87.60
66119;DHT22;52912;48.564;9.302;2022-07-29T04:59:16;17.96;87.60
66119;DHT22;52912;48.564;9.302;2022-07-29T05:01:41;18.05;87.84
66119;DHT22;52912;48.564;9.302;2022-07-29T05:04:07;18.17;87.59
66119;DHT22;52912;48.564;9.302;2022-07-29T05:06:34;18.22;87.32
66119;DHT22;52912;48.564;9.302;2022-07-29T05:08:59;18.32;86.79
66119;DHT22;52912;48.564;9.302;2022-07-29T05:11:25;18.30;87.14
66119;DHT22;52912;48.564;9.302;2022-07-29T05:13:50;18.44;86.66
66119;DHT22;52912;48.564;9.302;2022-07-29T05:16:16;18.44;87.21
66119;DHT22;52912;48.564;9.302;2022-07-29T05:18:42;18.47;87.34
66119;DHT22;52912;48.564;9.302;2022-07-29T05:21:07;18.48;86.66
66119;DHT22;52912;48.564;9.302;2022-07-29T05:23:34;18.58;86.95
66119;DHT22;52912;48.564;9.302;2022-07-29T05:26:00;18.72;86.47
66119;DHT22;52912;48.564;9.302;2022-07-29T05:28:25;18.81;86.20
66119;DHT22;52912;48.564;9.302;2022-07-29T05:30:51;18.92;85.27
66119;DHT22;52912;48.564;9.302;2022-07-29T05:33:16;19.06;85.10
66119;DHT22;52912;48.564;9.302;2022-07-29T05:35:42;19.08;84.27
66119;DHT22;52912;48.564;9.302;2022-07-29T05:38:07;19.08;84.65
66119;DHT22;52912;48.564;9.302;2022-07-29T05:40:34;19.24;84.53
66119;DHT22;52912;48.564;9.302;2022-07-29T05:43:00;19.33;84.20
66119;DHT22;52912;48.564;9.302;2022-07-29T05:45:25;19.36;83.72
66119;DHT22;52912;48.564;9.302;2022-07-29T05:47:51;19.53;83.23
66119;DHT22;52912;48.564;9.302;2022-07-29T05:50:17;19.77;82.95
66119;DHT22;52912;48.564;9.302;2022-07-29T05:52:42;19.98;82.03
66119;DHT22;52912;48.564;9.302;2022-07-29T05:55:08;20.23;81.61
66119;DHT22;52912;48.564;9.302;2022-07-29T05:57:35;20.25;81.43
66119;DHT22;52912;48.564;9.302;2022-07-29T06:00:01;20.39;81.06
66119;DHT22;52912;48.564;9.302;2022-07-29T06:02:27;20.30;81.26
66119;DHT22;52912;48.564;9.302;2022-07-29T06:04:52;20.40;81.59
66119;DHT22;52912;48.564;9.302;2022-07-29T06:07:18;20.36;81.51
66119;DHT22;52912;48.564;9.302;2022-07-29T06:09:43;20.34;81.82
66119;DHT22;52912;48.564;9.302;2022-07-29T06:12:09;20.51;80.58
66119;DHT22;52912;48.564;9.302;2022-07-29T06:14:36;20.60;80.93
66119;DHT22;52912;48.564;9.302;2022-07-29T06:17:01;20.53;79.93
66119;DHT22;52912;48.564;9.302;2022-07-29T06:19:27;20.54;79.75
66119;DHT22;52912;48.564;9.302;2022-07-29T06:21:53;20.72;79.44
66119;DHT22;52912;48.564;9.302;2022-07-29T06:24:18;20.74;79.44
66119;DHT22;52912;48.564;9.302;2022-07-29T06:26:44;20.71;80.21
66119;DHT22;52912;48.564;9.302;2022-07-29T06:29:10;20.87;79.66
66119;DHT22;52912;48.564;9.302;2022-07-29T06:31:37;20.91;79.09
66119;DHT22;52912;48.564;9.302;2022-07-29T06:34:03;20.98;79.35
66119;DHT22;52912;48.564;9.302;2022-07-29T06:36:28;20.98;79.00
66119;DHT22;52912;48.564;9.302;2022-07-29T06:38:54;21.03;78.97
66119;DHT22;52912;48.564;9.302;2022-07-29T06:41:20;21.00;78.42
66119;DHT22;52912;48.564;9.302;2022-07-29T06:43:46;21.19;78.25
66119;DHT22;52912;48.564;9.302;2022-07-29T06:46:13;21.29;77.68
66119;DHT22;52912;48.564;9.302;2022-07-29T06:48:41;21.36;77.49
66119;DHT22;52912;48.564;9.302;2022-07-29T06:51:08;21.58;77.90
66119;DHT22;52912;48.564;9.302;2022-07-29T06:53:34;21.69;77.49
66119;DHT22;52912;48.564;9.302;2022-07-29T06:56:01;21.88;77.66
66119;DHT22;52912;48.564;9.302;2022-07-29T06:58:27;22.12;77.08
66119;DHT22;52912;48.564;9.302;2022-07-29T07:00:53;22.16;76.14
66119;DHT22;52912;48.564;9.302;2022-07-29T07:03:19;22.29;76.30
66119;DHT22;52912;48.564;9.302;2022-07-29T07:05:46;22.46;75.81
66119;DHT22;52912;48.564;9.302;2022-07-29T07:08:12;22.50;75.96
66119;DHT22;52912;48.564;9.302;2022-07-29T07:10:39;22.88;74.87
66119;DHT22;52912;48.564;9.302;2022-07-29T07:13:05;22.95;72.85
66119;DHT22;52912;48.564;9.302;2022-07-29T07:15:31;22.95;73.71
66119;DHT22;52912;48.564;9.302;2022-07-29T07:17:56;23.06;72.77
66119;DHT22;52912;48.564;9.302;2022-07-29T07:20:22;23.30;71.75
66119;DHT22;52912;48.564;9.302;2022-07-29T07:22:49;23.33;69.50
66119;DHT22;52912;48.564;9.302;2022-07-29T07:25:14;23.24;70.78
66119;DHT22;52912;48.564;9.302;2022-07-29T07:27:40;22.99;70.70
66119;DHT22;52912;48.564;9.302;2022-07-29T07:30:06;22.91;68.85
66119;DHT22;52912;48.564;9.302;2022-07-29T07:32:32;22.79;68.44
66119;DHT22;52912;48.564;9.302;2022-07-29T07:34:58;22.92;69.65
66119;DHT22;52912;48.564;9.302;2022-07-29T07:37:24;23.23;68.68
66119;DHT22;52912;48.564;9.302;2022-07-29T07:39:51;23.22;67.64
66119;DHT22;52912;48.564;9.302;2022-07-29T07:42:16;23.58;67.76
66119;DHT22;52912;48.564;9.302;2022-07-29T07:44:42;23.85;67.28
66119;DHT22;52912;48.564;9.302;2022-07-29T07:47:08;23.91;66.29
66119;DHT22;52912;48.564;9.302;2022-07-29T07:49:33;24.12;64.68
66119;DHT22;52912;48.564;9.302;2022-07-29T07:51:59;24.27;65.26
66119;DHT22;52912;48.564;9.302;2022-07-29T07:54:24;24.37;67.71
66119;DHT22;52912;48.564;9.302;2022-07-29T07:56:51;24.40;66.03
66119;DHT22;52912;48.564;9.302;2022-07-29T07:59:17;24.67;64.63
66119;DHT22;52912;48.564;9.302;2022-07-29T08:01:43;24.74;65.81
66119;DHT22;52912;48.564;9.302;2022-07-29T08:04:08;25.08;63.42
66119;DHT22;52912;48.564;9.302;2022-07-29T08:06:34;25.20;62.92
66119;DHT22;52912;48.564;9.302;2022-07-29T08:09:00;25.18;66.19
66119;DHT22;52912;48.564;9.302;2022-07-29T08:11:26;25.43;65.05
66119;DHT22;52912;48.564;9.302;2022-07-29T08:13:53;25.26;67.15
66119;DHT22;52912;48.564;9.302;2022-07-29T08:16:18;25.36;61.69
66119;DHT22;52912;48.564;9.302;2022-07-29T08:18:45;25.49;62.78
66119;DHT22;52912;48.564;9.302;2022-07-29T08:21:11;25.50;61.83
66119;DHT22;52912;48.564;9.302;2022-07-29T08:23:37;25.68;62.20
66119;DHT22;52912;48.564;9.302;2022-07-29T08:26:02;25.70;61.49
66119;DHT22;52912;48.564;9.302;2022-07-29T08:28:28;25.89;63.40
66119;DHT22;52912;48.564;9.302;2022-07-29T08:30:55;25.74;61.75
66119;DHT22;52912;48.564;9.302;2022-07-29T08:33:20;25.81;61.96
66119;DHT22;52912;48.564;9.302;2022-07-29T08:35:46;25.77;60.22
66119;DHT22;52912;48.564;9.302;2022-07-29T08:38:12;25.84;60.47
66119;DHT22;52912;48.564;9.302;2022-07-29T08:40:37;25.96;60.10
66119;DHT22;52912;48.564;9.302;2022-07-29T08:43:07;26.04;61.28
66119;DHT22;52912;48.564;9.302;2022-07-29T08:45:41;26.40;59.07
66119;DHT22;52912;48.564;9.302;2022-07-29T08:48:08;26.44;61.26
66119;DHT22;52912;48.564;9.302;2022-07-29T08:50:34;26.19;62.40
66119;DHT22;52912;48.564;9.302;2022-07-29T08:53:00;26.32;59.99
66119;DHT22;52912;48.564;9.302;2022-07-29T08:55:26;26.29;61.69
66119;DHT22;52912;48.564;9.302;2022-07-29T08:57:52;26.46;60.04
66119;DHT22;52912;48.564;9.302;2022-07-29T09:00:18;26.54;59.88
66119;DHT22;52912;48.564;9.302;2022-07-29T09:02:46;26.83;59.23
66119;DHT22;52912;48.564;9.302;2022-07-29T09:05:14;26.78;55.49
66119;DHT22;52912;48.564;9.302;2022-07-29T09:07:40;27.06;56.02
66119;DHT22;52912;48.564;9.302;2022-07-29T09:10:07;27.08;56.23
66119;DHT22;52912;48.564;9.302;2022-07-29T09:12:33;27.37;56.13
66119;DHT22;52912;48.564;9.302;2022-07-29T09:14:59;27.36;56.18
66119;DHT22;52912;48.564;9.302;2022-07-29T09:17:40;27.32;58.99
66119;DHT22;52912;48.564;9.302;2022-07-29T09:20:09;27.32;54.52
66119;DHT22;52912;48.564;9.302;2022-07-29T09:22:36;27.82;53.68
66119;DHT22;52912;48.564;9.302;2022-07-29T09:25:01;27.98;54.43
66119;DHT22;52912;48.564;9.302;2022-07-29T09:27:27;28.01;54.73
66119;DHT22;52912;48.564;9.302;2022-07-29T09:29:57;28.18;55.17
66119;DHT22;52912;48.564;9.302;2022-07-29T09:32:23;28.40;55.37
66119;DHT22;52912;48.564;9.302;2022-07-29T09:34:49;28.46;55.23
66119;DHT22;52912;48.564;9.302;2022-07-29T09:37:25;28.04;53.95
66119;DHT22;52912;48.564;9.302;2022-07-29T09:39:53;27.97;54.83
66119;DHT22;52912;48.564;9.302;2022-07-29T09:42:28;27.85;55.32
66119;DHT22;52912;48.564;9.302;2022-07-29T09:44:54;27.95;52.43
66119;DHT22;52912;48.564;9.302;2022-07-29T09:47:20;28.08;52.67
66119;DHT22;52912;48.564;9.302;2022-07-29T09:49:54;28.18;55.32
66119;DHT22;52912;48.564;9.302;2022-07-29T09:52:21;27.81;54.84
66119;DHT22;52912;48.564;9.302;2022-07-29T09:54:46;27.98;55.16
66119;DHT22;52912;48.564;9.302;2022-07-29T09:57:24;27.99;54.15
66119;DHT22;52912;48.564;9.302;2022-07-29T09:59:57;28.13;54.43
66119;DHT22;52912;48.564;9.302;2022-07-29T10:02:28;28.53;51.51
66119;DHT22;52912;48.564;9.302;2022-07-29T10:04:54;28.56;50.60
66119;DHT22;52912;48.564;9.302;2022-07-29T10:07:19;28.39;51.02
66119;DHT22;52912;48.564;9.302;2022-07-29T10:09:51;28.54;51.48
66119;DHT22;52912;48.564;9.302;2022-07-29T10:12:17;28.44;50.60
66119;DHT22;52912;48.564;9.302;2022-07-29T10:14:44;28.42;50.36
66119;DHT22;52912;48.564;9.302;2022-07-29T10:17:10;28.36;50.27
66119;DHT22;52912;48.564;9.302;2022-07-29T10:19:37;28.33;49.65
66119;DHT22;52912;48.564;9.302;2022-07-29T10:22:06;28.31;49.73
66119;DHT22;52912;48.564;9.302;2022-07-29T10:24:32;28.09;51.17
66119;DHT22;52912;48.564;9.302;2022-07-29T10:26:59;27.54;50.30
66119;DHT22;52912;48.564;9.302;2022-07-29T10:29:25;27.80;51.64
66119;DHT22;52912;48.564;9.302;2022-07-29T10:32:02;28.16;51.73
66119;DHT22;52912;48.564;9.302;2022-07-29T10:34:43;28.60;50.09
66119;DHT22;52912;48.564;9.302;2022-07-29T10:37:18;28.33;50.28
66119;DHT22;52912;48.564;9.302;2022-07-29T10:39:54;28.25;50.64
66119;DHT22;52912;48.564;9.302;2022-07-29T10:42:22;28.35;49.84
66119;DHT22;52912;48.564;9.302;2022-07-29T10:44:48;28.08;49.78
66119;DHT22;52912;48.564;9.302;2022-07-29T10:47:26;28.33;48.54
66119;DHT22;52912;48.564;9.302;2022-07-29T10:49:57;27.98;49.12
66119;DHT22;52912;48.564;9.302;2022-07-29T10:52:23;28.02;49.91
66119;DHT22;52912;48.564;9.302;2022-07-29T10:54:49;28.13;49.50
66119;DHT22;52912;48.564;9.302;2022-07-29T10:57:23;28.22;49.18
66119;DHT22;52912;48.564;9.302;2022-07-29T10:59:51;28.13;50.37
66119;DHT22;52912;48.564;9.302;2022-07-29T11:02:44;28.18;49.97
66119;DHT22;52912;48.564;9.302;2022-07-29T11:05:11;27.92;49.68
66119;DHT22;52912;48.564;9.302;2022-07-29T11:07:39;28.01;50.13
66119;DHT22;52912;48.564;9.302;2022-07-29T11:10:22;28.19;49.86
66119;DHT22;52912;48.564;9.302;2022-07-29T11:12:48;27.88;54.49
66119;DHT22;52912;48.564;9.302;2022-07-29T11:15:15;28.06;54.14
66119;DHT22;52912;48.564;9.302;2022-07-29T11:18:07;27.64;52.05
66119;DHT22;52912;48.564;9.302;2022-07-29T11:20:35;27.57;52.57
66119;DHT22;52912;48.564;9.302;2022-07-29T11:23:01;27.94;50.37
66119;DHT22;52912;48.564;9.302;2022-07-29T11:25:27;28.57;48.84
66119;DHT22;52912;48.564;9.302;2022-07-29T11:27:54;28.67;47.12
66119;DHT22;52912;48.564;9.302;2022-07-29T11:30:47;28.98;47.38
66119;DHT22;52912;48.564;9.302;2022-07-29T11:33:28;29.33;47.34
66119;DHT22;52912;48.564;9.302;2022-07-29T11:36:10;29.39;47.20
66119;DHT22;52912;48.564;9.302;2022-07-29T11:38:36;29.20;47.80
66119;DHT22;52912;48.564;9.302;2022-07-29T11:41:22;28.97;47.80
66119;DHT22;52912;48.564;9.302;2022-07-29T11:43:48;29.15;46.58
66119;DHT22;52912;48.564;9.302;2022-07-29T11:46:14;29.09;48.78
66119;DHT22;52912;48.564;9.302;2022-07-29T11:48:43;28.19;51.86
66119;DHT22;52912;48.564;9.302;2022-07-29T11:51:10;25.89;58.43
66119;DHT22;52912;48.564;9.302;2022-07-29T11:53:35;25.06;60.33
66119;DHT22;52912;48.564;9.302;2022-07-29T11:56:01;25.18;57.69
66119;DHT22;52912;48.564;9.302;2022-07-29T11:58:29;24.71;56.53
66119;DHT22;52912;48.564;9.302;2022-07-29T12:00:56;24.60;55.44
66119;DHT22;52912;48.564;9.302;2022-07-29T12:03:24;24.29;55.48
66119;DHT22;52912;48.564;9.302;2022-07-29T12:05:51;24.49;56.17
66119;DHT22;52912;48.564;9.302;2022-07-29T12:08:18;24.82;54.87
66119;DHT22;52912;48.564;9.302;2022-07-29T12:10:44;25.68;54.14
66119;DHT22;52912;48.564;9.302;2022-07-29T12:13:10;25.59;54.24
66119;DHT22;52912;48.564;9.302;2022-07-29T12:15:36;25.11;53.89
66119;DHT22;52912;48.564;9.302;2022-07-29T12:18:12;25.63;53.41
66119;DHT22;52912;48.564;9.302;2022-07-29T12:20:38;24.81;57.10
66119;DHT22;52912;48.564;9.302;2022-07-29T12:23:07;24.87;55.92
66119;DHT22;52912;48.564;9.302;2022-07-29T12:25:33;24.95;56.39
66119;DHT22;52912;48.564;9.302;2022-07-29T12:28:00;24.88;56.25
66119;DHT22;52912;48.564;9.302;2022-07-29T12:30:44;24.68;57.06
66119;DHT22;52912;48.564;9.302;2022-07-29T12:33:16;24.98;56.88
66119;DHT22;52912;48.564;9.302;2022-07-29T12:35:44;24.99;57.05
66119;DHT22;52912;48.564;9.302;2022-07-29T12:38:13;24.84;56.50
66119;DHT22;52912;48.564;9.302;2022-07-29T12:40:38;24.78;56.52
66119;DHT22;52912;48.564;9.302;2022-07-29T12:43:06;24.75;57.31
66119;DHT22;52912;48.564;9.302;2022-07-29T12:45:32;24.47;58.55
66119;DHT22;52912;48.564;9.302;2022-07-29T12:47:58;24.71;59.06
66119;DHT22;52912;48.564;9.302;2022-07-29T12:50:24;24.72;58.00
66119;DHT22;52912;48.564;9.302;2022-07-29T12:52:50;23.72;61.52
66119;DHT22;52912;48.564;9.302;2022-07-29T12:55:37;24.15;61.08
66119;DHT22;52912;48.564;9.302;2022-07-29T12:58:03;24.17;61.15
66119;DHT22;52912;48.564;9.302;2022-07-29T13:00:29;24.53;60.19
66119;DHT22;52912;48.564;9.302;2022-07-29T13:02:56;24.57;59.90
66119;DHT22;52912;48.564;9.302;2022-07-29T13:05:22;24.57;61.04
66119;DHT22;52912;48.564;9.302;2022-07-29T13:07:50;24.46;61.72
66119;DHT22;52912;48.564;9.302;2022-07-29T13:10:18;24.61;61.27
66119;DHT22;52912;48.564;9.302;2022-07-29T13:13:03;24.27;60.48
66119;DHT22;52912;48.564;9.302;2022-07-29T13:15:29;24.53;59.06
66119;DHT22;52912;48.564;9.302;2022-07-29T13:17:54;24.68;59.05
66119;DHT22;52912;48.564;9.302;2022-07-29T13:20:23;24.80;59.22
66119;DHT22;52912;48.564;9.302;2022-07-29T13:22:49;24.74;59.64
66119;DHT22;52912;48.564;9.302;2022-07-29T13:25:25;24.82;58.61
66119;DHT22;52912;48.564;9.302;2022-07-29T13:27:51;24.67;60.57
66119;DHT22;52912;48.564;9.302;2022-07-29T13:30:16;24.50;61.43
66119;DHT22;52912;48.564;9.302;2022-07-29T13:32:42;24.27;61.53
66119;DHT22;52912;48.564;9.302;2022-07-29T13:35:08;24.34;61.32
66119;DHT22;52912;48.564;9.302;2022-07-29T13:37:34;24.27;61.85
66119;DHT22;52912;48.564;9.302;2022-07-29T13:40:00;24.36;61.37
66119;DHT22;52912;48.564;9.302;2022-07-29T13:42:28;24.23;63.49
66119;DHT22;52912;48.564;9.302;2022-07-29T13:44:54;23.98;67.48
66119;DHT22;52912;48.564;9.302;2022-07-29T13:47:20;23.95;69.80
66119;DHT22;52912;48.564;9.302;2022-07-29T13:49:46;23.74;74.00
66119;DHT22;52912;48.564;9.302;2022-07-29T13:52:11;23.65;65.52
66119;DHT22;52912;48.564;9.302;2022-07-29T13:54:37;23.20;74.80
66119;DHT22;52912;48.564;9.302;2022-07-29T13:57:03;22.79;74.83
66119;DHT22;52912;48.564;9.302;2022-07-29T13:59:30;22.67;77.92
66119;DHT22;52912;48.564;9.302;2022-07-29T14:01:56;22.91;76.06
66119;DHT22;52912;48.564;9.302;2022-07-29T14:04:22;22.88;78.46
66119;DHT22;52912;48.564;9.302;2022-07-29T14:06:47;22.44;79.60
66119;DHT22;52912;48.564;9.302;2022-07-29T14:09:13;22.03;81.20
66119;DHT22;52912;48.564;9.302;2022-07-29T14:11:38;21.88;82.80
66119;DHT22;52912;48.564;9.302;2022-07-29T14:14:04;21.86;85.42
66119;DHT22;52912;48.564;9.302;2022-07-29T14:16:31;22.03;81.65
66119;DHT22;52912;48.564;9.302;2022-07-29T14:18:57;22.14;83.01
66119;DHT22;52912;48.564;9.302;2022-07-29T14:21:23;22.16;81.32
66119;DHT22;52912;48.564;9.302;2022-07-29T14:23:48;22.26;76.76
66119;DHT22;52912;48.564;9.302;2022-07-29T14:26:14;22.30;79.18
66119;DHT22;52912;48.564;9.302;2022-07-29T14:28:39;22.29;80.80
66119;DHT22;52912;48.564;9.302;2022-07-29T14:31:05;22.13;81.99
66119;DHT22;52912;48.564;9.302;2022-07-29T14:33:32;22.01;83.30
66119;DHT22;52912;48.564;9.302;2022-07-29T14:35:57;21.95;81.09
66119;DHT22;52912;48.564;9.302;2022-07-29T14:38:23;21.94;83.22
66119;DHT22;52912;48.564;9.302;2022-07-29T14:40:48;22.02;80.40
66119;DHT22;52912;48.564;9.302;2022-07-29T14:43:14;22.01;80.86
66119;DHT22;52912;48.564;9.302;2022-07-29T14:45:40;22.16;80.08
66119;DHT22;52912;48.564;9.302;2022-07-29T14:48:06;22.26;79.95
66119;DHT22;52912;48.564;9.302;2022-07-29T14:50:33;22.19;80.31
66119;DHT22;52912;48.564;9.302;2022-07-29T14:52:58;21.99;78.16
66119;DHT22;52912;48.564;9.302;2022-07-29T14:55:24;21.84;77.70
66119;DHT22;52912;48.564;9.302;2022-07-29T14:57:50;21.79;77.37
66119;DHT22;52912;48.564;9.302;2022-07-29T15:00:16;21.85;78.16
66119;DHT22;52912;48.564;9.302;2022-07-29T15:02:41;21.67;77.81
66119;DHT22;52912;48.564;9.302;2022-07-29T15:05:07;21.85;78.74
66119;DHT22;52912;48.564;9.302;2022-07-29T15:07:34;22.17;77.78
66119;DHT22;52912;48.564;9.302;2022-07-29T15:09:59;22.28;75.27
66119;DHT22;52912;48.564;9.302;2022-07-29T15:12:25;22.19;76.36
66119;DHT22;52912;48.564;9.302;2022-07-29T15:14:51;22.28;75.72
66119;DHT22;52912;48.564;9.302;2022-07-29T15:17:16;22.26;75.13
66119;DHT22;52912;48.564;9.302;2022-07-29T15:19:42;22.36;75.32
66119;DHT22;52912;48.564;9.302;2022-07-29T15:22:07;21.78;77.23
66119;DHT22;52912;48.564;9.302;2022-07-29T15:24:34;21.74;77.99
66119;DHT22;52912;48.564;9.302;2022-07-29T15:27:00;21.68;78.32
66119;DHT22;52912;48.564;9.302;2022-07-29T15:29:25;21.58;78.94
66119;DHT22;52912;48.564;9.302;2022-07-29T15:31:51;21.67;78.53
66119;DHT22;52912;48.564;9.302;2022-07-29T15:34:16;21.81;78.63